sensor_id;sensor_type;location;lat;lon;timestamp;P1;durP1;ratioP1;P2;durP2;ratioP2
7263;SDS011;3673;52.480;13.348;2023-02-21T00:01:57;7.93;;;5.85;;
7263;SDS011;3673;52.480;13.348;2023-02-21T00:04:41;7.10;;;5.75;;
7263;SDS011;3673;52.480;13.348;2023-02-21T00:07:27;7.85;;;5.47;;
7263;SDS011;3673;52.480;13.348;2023-02-21T00:10:13;7.63;;;5.70;;
7263;SDS011;3673;52.480;13.348;2023-02-21T00:12:58;7.68;;;6.18;;
7263;SDS011;3673;52.480;13.348;2023-02-21T00:15:43;7.30;;;6.05;;
7263;SDS011;3673;52.480;13.348;2023-02-21T00:18:27;8.43;;;6.57;;
7263;SDS011;3673;52.480;13.348;2023-02-21T00:21:15;7.40;;;5.95;;
7263;SDS011;3673;52.480;13.348;2023-02-21T00:24:01;8.60;;;6.18;;
7263;SDS011;3673;52.480;13.348;2023-02-21T00:26:46;10.23;;;5.85;;
7263;SDS011;3673;52.480;13.348;2023-02-21T00:29:31;9.75;;;6.18;;
7263;SDS011;3673;52.480;13.348;2023-02-21T00:32:16;8.75;;;6.70;;
7263;SDS011;3673;52.480;13.348;2023-02-21T00:35:00;9.20;;;6.55;;
7263;SDS011;3673;52.480;13.348;2023-02-21T00:37:47;8.95;;;7.13;;
7263;SDS011;3673;52.480;13.348;2023-02-21T00:40:34;8.48;;;6.18;;
7263;SDS011;3673;52.480;13.348;2023-02-21T00:43:19;9.85;;;7.57;;
7263;SDS011;3673;52.480;13.348;2023-02-21T00:46:10;8.65;;;6.70;;
7263;SDS011;3673;52.480;13.348;2023-02-21T00:48:54;11.13;;;8.27;;
7263;SDS011;3673;52.480;13.348;2023-02-21T00:51:39;10.05;;;7.25;;
7263;SDS011;3673;52.480;13.348;2023-02-21T00:54:23;7.75;;;6.38;;
7263;SDS011;3673;52.480;13.348;2023-02-21T00:57:09;10.65;;;8.02;;
7263;SDS011;3673;52.480;13.348;2023-02-21T00:59:54;10.95;;;7.85;;
7263;SDS011;3673;52.480;13.348;2023-02-21T01:02:38;11.13;;;8.23;;
7263;SDS011;3673;52.480;13.348;2023-02-21T01:05:23;13.13;;;8.90;;
7263;SDS011;3673;52.480;13.348;2023-02-21T01:08:08;12.57;;;8.90;;
7263;SDS011;3673;52.480;13.348;2023-02-21T01:10:53;12.20;;;9.38;;
7263;SDS011;3673;52.480;13.348;2023-02-21T01:13:38;13.20;;;8.70;;
7263;SDS011;3673;52.480;13.348;2023-02-21T01:16:23;11.95;;;8.85;;
7263;SDS011;3673;52.480;13.348;2023-02-21T01:19:12;12.90;;;9.65;;
7263;SDS011;3673;52.480;13.348;2023-02-21T01:21:56;12.27;;;8.90;;
7263;SDS011;3673;52.480;13.348;2023-02-21T01:24:41;13.82;;;9.27;;
7263;SDS011;3673;52.480;13.348;2023-02-21T01:27:26;12.30;;;9.10;;
7263;SDS011;3673;52.480;13.348;2023-02-21T01:30:12;14.30;;;10.02;;
7263;SDS011;3673;52.480;13.348;2023-02-21T01:32:56;13.30;;;9.38;;
7263;SDS011;3673;52.480;13.348;2023-02-21T01:35:41;12.10;;;8.48;;
7263;SDS011;3673;52.480;13.348;2023-02-21T01:38:25;13.77;;;9.63;;
7263;SDS011;3673;52.480;13.348;2023-02-21T01:41:10;16.88;;;9.93;;
7263;SDS011;3673;52.480;13.348;2023-02-21T01:43:58;13.05;;;9.60;;
7263;SDS011;3673;52.480;13.348;2023-02-21T01:46:46;13.52;;;9.68;;
7263;SDS011;3673;52.480;13.348;2023-02-21T01:49:31;14.48;;;9.10;;
7263;SDS011;3673;52.480;13.348;2023-02-21T01:52:18;16.35;;;10.52;;
7263;SDS011;3673;52.480;13.348;2023-02-21T01:55:03;11.65;;;8.52;;
7263;SDS011;3673;52.480;13.348;2023-02-21T01:57:48;15.02;;;9.30;;
7263;SDS011;3673;52.480;13.348;2023-02-21T02:00:34;15.57;;;9.13;;
7263;SDS011;3673;52.480;13.348;2023-02-21T02:03:20;13.88;;;8.95;;
7263;SDS011;3673;52.480;13.348;2023-02-21T02:06:06;13.60;;;9.50;;
7263;SDS011;3673;52.480;13.348;2023-02-21T02:08:51;13.10;;;8.83;;
7263;SDS011;3673;52.480;13.348;2023-02-21T02:11:48;14.00;;;10.10;;
7263;SDS011;3673;52.480;13.348;2023-02-21T02:17:51;15.10;;;9.90;;
7263;SDS011;3673;52.480;13.348;2023-02-21T02:24:18;14.25;;;9.68;;
7263;SDS011;3673;52.480;13.348;2023-02-21T02:33:18;13.60;;;9.50;;
7263;SDS011;3673;52.480;13.348;2023-02-21T02:36:26;13.63;;;9.45;;
7263;SDS011;3673;52.480;13.348;2023-02-21T02:38:59;13.40;;;9.98;;
7263;SDS011;3673;52.480;13.348;2023-02-21T02:41:39;13.80;;;9.32;;
7263;SDS011;3673;52.480;13.348;2023-02-21T02:44:16;14.88;;;9.80;;
7263;SDS011;3673;52.480;13.348;2023-02-21T02:46:49;14.38;;;9.82;;
7263;SDS011;3673;52.480;13.348;2023-02-21T02:49:18;15.23;;;10.20;;
7263;SDS011;3673;52.480;13.348;2023-02-21T02:51:51;12.88;;;9.35;;
7263;SDS011;3673;52.480;13.348;2023-02-21T02:54:18;16.42;;;10.90;;
7263;SDS011;3673;52.480;13.348;2023-02-21T02:56:46;15.43;;;10.80;;
7263;SDS011;3673;52.480;13.348;2023-02-21T02:59:14;18.17;;;10.75;;
7263;SDS011;3673;52.480;13.348;2023-02-21T03:01:58;15.60;;;11.02;;
7263;SDS011;3673;52.480;13.348;2023-02-21T03:04:56;17.65;;;12.48;;
7263;SDS011;3673;52.480;13.348;2023-02-21T03:07:44;15.30;;;10.98;;
7263;SDS011;3673;52.480;13.348;2023-02-21T03:10:25;15.40;;;10.35;;
7263;SDS011;3673;52.480;13.348;2023-02-21T03:13:02;13.85;;;10.13;;
7263;SDS011;3673;52.480;13.348;2023-02-21T03:15:38;13.60;;;10.10;;
7263;SDS011;3673;52.480;13.348;2023-02-21T03:18:13;13.77;;;10.23;;
7263;SDS011;3673;52.480;13.348;2023-02-21T03:20:49;17.55;;;10.40;;
7263;SDS011;3673;52.480;13.348;2023-02-21T03:23:22;15.23;;;10.68;;
7263;SDS011;3673;52.480;13.348;2023-02-21T03:25:55;18.20;;;11.32;;
7263;SDS011;3673;52.480;13.348;2023-02-21T03:28:27;12.82;;;9.95;;
7263;SDS011;3673;52.480;13.348;2023-02-21T03:30:55;16.33;;;11.20;;
7263;SDS011;3673;52.480;13.348;2023-02-21T03:33:24;14.95;;;9.57;;
7263;SDS011;3673;52.480;13.348;2023-02-21T03:35:51;14.73;;;9.50;;
7263;SDS011;3673;52.480;13.348;2023-02-21T03:38:18;12.35;;;8.48;;
7263;SDS011;3673;52.480;13.348;2023-02-21T03:40:47;13.00;;;9.65;;
7263;SDS011;3673;52.480;13.348;2023-02-21T03:43:14;13.15;;;9.40;;
7263;SDS011;3673;52.480;13.348;2023-02-21T03:45:41;14.43;;;10.38;;
7263;SDS011;3673;52.480;13.348;2023-02-21T03:48:07;13.02;;;9.50;;
7263;SDS011;3673;52.480;13.348;2023-02-21T03:50:34;16.13;;;9.85;;
7263;SDS011;3673;52.480;13.348;2023-02-21T03:53:01;12.52;;;10.05;;
7263;SDS011;3673;52.480;13.348;2023-02-21T03:55:28;13.25;;;9.73;;
7263;SDS011;3673;52.480;13.348;2023-02-21T03:57:56;14.20;;;9.85;;
7263;SDS011;3673;52.480;13.348;2023-02-21T04:00:23;15.02;;;9.55;;
7263;SDS011;3673;52.480;13.348;2023-02-21T04:02:50;11.70;;;9.15;;
7263;SDS011;3673;52.480;13.348;2023-02-21T04:05:16;12.20;;;8.70;;
7263;SDS011;3673;52.480;13.348;2023-02-21T04:07:43;14.75;;;9.68;;
7263;SDS011;3673;52.480;13.348;2023-02-21T04:10:10;12.32;;;9.73;;
7263;SDS011;3673;52.480;13.348;2023-02-21T04:12:37;14.32;;;10.43;;
7263;SDS011;3673;52.480;13.348;2023-02-21T04:15:05;13.85;;;10.15;;
7263;SDS011;3673;52.480;13.348;2023-02-21T04:17:33;13.10;;;9.50;;
7263;SDS011;3673;52.480;13.348;2023-02-21T04:20:00;15.93;;;10.00;;
7263;SDS011;3673;52.480;13.348;2023-02-21T04:22:26;13.57;;;10.38;;
7263;SDS011;3673;52.480;13.348;2023-02-21T04:24:53;14.75;;;10.50;;
7263;SDS011;3673;52.480;13.348;2023-02-21T04:27:20;15.73;;;10.40;;
7263;SDS011;3673;52.480;13.348;2023-02-21T04:29:47;15.57;;;10.25;;
7263;SDS011;3673;52.480;13.348;2023-02-21T04:32:15;15.68;;;10.88;;
7263;SDS011;3673;52.480;13.348;2023-02-21T04:34:41;15.18;;;10.55;;
7263;SDS011;3673;52.480;13.348;2023-02-21T04:37:08;14.32;;;9.80;;
7263;SDS011;3673;52.480;13.348;2023-02-21T04:39:35;14.27;;;10.52;;
7263;SDS011;3673;52.480;13.348;2023-02-21T04:42:02;17.65;;;11.75;;
7263;SDS011;3673;52.480;13.348;2023-02-21T04:44:29;16.13;;;11.10;;
7263;SDS011;3673;52.480;13.348;2023-02-21T04:46:55;18.40;;;10.35;;
7263;SDS011;3673;52.480;13.348;2023-02-21T04:49:24;15.23;;;10.45;;
7263;SDS011;3673;52.480;13.348;2023-02-21T04:51:51;16.80;;;11.85;;
7263;SDS011;3673;52.480;13.348;2023-02-21T04:54:18;18.35;;;11.77;;
7263;SDS011;3673;52.480;13.348;2023-02-21T04:56:45;20.42;;;12.50;;
7263;SDS011;3673;52.480;13.348;2023-02-21T04:59:11;20.10;;;13.05;;
7263;SDS011;3673;52.480;13.348;2023-02-21T05:01:38;17.85;;;12.70;;
7263;SDS011;3673;52.480;13.348;2023-02-21T05:04:05;20.08;;;12.88;;
7263;SDS011;3673;52.480;13.348;2023-02-21T05:06:33;19.50;;;12.80;;
7263;SDS011;3673;52.480;13.348;2023-02-21T05:09:00;23.45;;;12.90;;
7263;SDS011;3673;52.480;13.348;2023-02-21T05:11:31;18.80;;;12.45;;
7263;SDS011;3673;52.480;13.348;2023-02-21T05:13:59;21.15;;;13.00;;
7263;SDS011;3673;52.480;13.348;2023-02-21T05:16:26;18.85;;;12.43;;
7263;SDS011;3673;52.480;13.348;2023-02-21T05:18:54;20.63;;;12.90;;
7263;SDS011;3673;52.480;13.348;2023-02-21T05:21:21;20.17;;;13.20;;
7263;SDS011;3673;52.480;13.348;2023-02-21T05:23:49;20.90;;;12.70;;
7263;SDS011;3673;52.480;13.348;2023-02-21T05:26:21;20.70;;;13.43;;
7263;SDS011;3673;52.480;13.348;2023-02-21T05:28:51;17.98;;;12.25;;
7263;SDS011;3673;52.480;13.348;2023-02-21T05:31:18;16.65;;;11.50;;
7263;SDS011;3673;52.480;13.348;2023-02-21T05:33:45;20.33;;;12.38;;
7263;SDS011;3673;52.480;13.348;2023-02-21T05:36:12;18.65;;;11.68;;
7263;SDS011;3673;52.480;13.348;2023-02-21T05:38:43;18.88;;;11.75;;
7263;SDS011;3673;52.480;13.348;2023-02-21T05:41:12;17.50;;;11.82;;
7263;SDS011;3673;52.480;13.348;2023-02-21T05:43:42;17.65;;;11.27;;
7263;SDS011;3673;52.480;13.348;2023-02-21T05:46:15;19.58;;;12.95;;
7263;SDS011;3673;52.480;13.348;2023-02-21T05:48:44;16.67;;;11.27;;
7263;SDS011;3673;52.480;13.348;2023-02-21T05:51:11;18.90;;;11.95;;
7263;SDS011;3673;52.480;13.348;2023-02-21T05:53:38;21.25;;;13.85;;
7263;SDS011;3673;52.480;13.348;2023-02-21T05:56:04;19.17;;;12.57;;
7263;SDS011;3673;52.480;13.348;2023-02-21T05:58:33;21.35;;;13.10;;
7263;SDS011;3673;52.480;13.348;2023-02-21T06:01:00;22.02;;;12.73;;
7263;SDS011;3673;52.480;13.348;2023-02-21T06:03:28;20.33;;;13.35;;
7263;SDS011;3673;52.480;13.348;2023-02-21T06:05:55;20.10;;;12.60;;
7263;SDS011;3673;52.480;13.348;2023-02-21T06:08:21;23.17;;;12.55;;
7263;SDS011;3673;52.480;13.348;2023-02-21T06:10:49;18.77;;;11.50;;
7263;SDS011;3673;52.480;13.348;2023-02-21T06:13:16;16.90;;;11.18;;
7263;SDS011;3673;52.480;13.348;2023-02-21T06:15:44;17.88;;;10.75;;
7263;SDS011;3673;52.480;13.348;2023-02-21T06:18:11;17.98;;;11.75;;
7263;SDS011;3673;52.480;13.348;2023-02-21T06:20:39;18.52;;;11.60;;
7263;SDS011;3673;52.480;13.348;2023-02-21T06:23:06;20.88;;;11.77;;
7263;SDS011;3673;52.480;13.348;2023-02-21T06:25:33;18.95;;;11.85;;
7263;SDS011;3673;52.480;13.348;2023-02-21T06:28:00;16.63;;;10.50;;
7263;SDS011;3673;52.480;13.348;2023-02-21T06:30:27;18.17;;;10.10;;
7263;SDS011;3673;52.480;13.348;2023-02-21T06:32:55;15.75;;;10.30;;
7263;SDS011;3673;52.480;13.348;2023-02-21T06:35:21;16.23;;;10.75;;
7263;SDS011;3673;52.480;13.348;2023-02-21T06:37:48;18.98;;;10.85;;
7263;SDS011;3673;52.480;13.348;2023-02-21T06:40:15;16.52;;;9.60;;
7263;SDS011;3673;52.480;13.348;2023-02-21T06:42:42;17.08;;;10.93;;
7263;SDS011;3673;52.480;13.348;2023-02-21T06:45:09;16.50;;;10.30;;
7263;SDS011;3673;52.480;13.348;2023-02-21T06:47:35;24.33;;;10.73;;
7263;SDS011;3673;52.480;13.348;2023-02-21T06:50:04;18.38;;;10.52;;
7263;SDS011;3673;52.480;13.348;2023-02-21T06:52:31;18.35;;;10.85;;
7263;SDS011;3673;52.480;13.348;2023-02-21T06:54:58;12.70;;;8.30;;
7263;SDS011;3673;52.480;13.348;2023-02-21T06:57:25;13.43;;;8.48;;
7263;SDS011;3673;52.480;13.348;2023-02-21T06:59:52;12.80;;;8.40;;
7263;SDS011;3673;52.480;13.348;2023-02-21T07:02:18;14.07;;;8.77;;
7263;SDS011;3673;52.480;13.348;2023-02-21T07:04:46;15.27;;;9.48;;
7263;SDS011;3673;52.480;13.348;2023-02-21T07:07:14;13.40;;;8.57;;
7263;SDS011;3673;52.480;13.348;2023-02-21T07:09:41;11.75;;;7.57;;
7263;SDS011;3673;52.480;13.348;2023-02-21T07:12:08;14.70;;;8.70;;
7263;SDS011;3673;52.480;13.348;2023-02-21T07:14:35;13.05;;;7.55;;
7263;SDS011;3673;52.480;13.348;2023-02-21T07:17:02;9.45;;;6.78;;
7263;SDS011;3673;52.480;13.348;2023-02-21T07:19:29;17.10;;;10.63;;
7263;SDS011;3673;52.480;13.348;2023-02-21T07:21:55;12.65;;;8.23;;
7263;SDS011;3673;52.480;13.348;2023-02-21T07:24:23;10.80;;;7.38;;
7263;SDS011;3673;52.480;13.348;2023-02-21T07:26:50;14.65;;;7.55;;
7263;SDS011;3673;52.480;13.348;2023-02-21T07:29:17;12.40;;;9.02;;
7263;SDS011;3673;52.480;13.348;2023-02-21T07:31:44;12.45;;;8.13;;
7263;SDS011;3673;52.480;13.348;2023-02-21T07:34:11;24.30;;;17.35;;
7263;SDS011;3673;52.480;13.348;2023-02-21T07:36:39;8.93;;;6.25;;
7263;SDS011;3673;52.480;13.348;2023-02-21T07:39:06;8.20;;;5.07;;
7263;SDS011;3673;52.480;13.348;2023-02-21T07:41:34;7.10;;;4.35;;
7263;SDS011;3673;52.480;13.348;2023-02-21T07:44:00;7.80;;;5.43;;
7263;SDS011;3673;52.480;13.348;2023-02-21T07:46:27;7.30;;;5.28;;
7263;SDS011;3673;52.480;13.348;2023-02-21T07:48:55;7.90;;;5.03;;
7263;SDS011;3673;52.480;13.348;2023-02-21T07:51:22;7.15;;;4.68;;
7263;SDS011;3673;52.480;13.348;2023-02-21T07:53:52;8.43;;;5.45;;
7263;SDS011;3673;52.480;13.348;2023-02-21T07:56:19;7.80;;;5.40;;
7263;SDS011;3673;52.480;13.348;2023-02-21T07:58:47;7.60;;;4.82;;
7263;SDS011;3673;52.480;13.348;2023-02-21T08:01:14;7.82;;;5.13;;
7263;SDS011;3673;52.480;13.348;2023-02-21T08:03:40;5.78;;;4.63;;
7263;SDS011;3673;52.480;13.348;2023-02-21T08:06:07;7.68;;;4.72;;
7263;SDS011;3673;52.480;13.348;2023-02-21T08:08:35;6.43;;;4.53;;
7263;SDS011;3673;52.480;13.348;2023-02-21T08:11:02;4.47;;;3.58;;
7263;SDS011;3673;52.480;13.348;2023-02-21T08:13:29;7.00;;;3.47;;
7263;SDS011;3673;52.480;13.348;2023-02-21T08:15:57;6.57;;;3.25;;
7263;SDS011;3673;52.480;13.348;2023-02-21T08:18:24;2.53;;;2.10;;
7263;SDS011;3673;52.480;13.348;2023-02-21T08:20:51;10.73;;;3.33;;
7263;SDS011;3673;52.480;13.348;2023-02-21T08:23:19;5.07;;;2.85;;
7263;SDS011;3673;52.480;13.348;2023-02-21T08:25:47;5.63;;;2.85;;
7263;SDS011;3673;52.480;13.348;2023-02-21T08:28:14;10.50;;;2.65;;
7263;SDS011;3673;52.480;13.348;2023-02-21T08:30:42;6.30;;;1.92;;
7263;SDS011;3673;52.480;13.348;2023-02-21T08:33:10;11.63;;;3.67;;
7263;SDS011;3673;52.480;13.348;2023-02-21T08:35:37;3.75;;;1.30;;
7263;SDS011;3673;52.480;13.348;2023-02-21T08:38:04;3.03;;;1.40;;
7263;SDS011;3673;52.480;13.348;2023-02-21T08:40:31;6.50;;;2.40;;
7263;SDS011;3673;52.480;13.348;2023-02-21T08:42:58;1.63;;;1.40;;
7263;SDS011;3673;52.480;13.348;2023-02-21T08:45:26;2.75;;;1.52;;
7263;SDS011;3673;52.480;13.348;2023-02-21T08:47:54;4.07;;;1.05;;
7263;SDS011;3673;52.480;13.348;2023-02-21T08:50:25;2.00;;;1.20;;
7263;SDS011;3673;52.480;13.348;2023-02-21T08:52:54;3.20;;;1.20;;
7263;SDS011;3673;52.480;13.348;2023-02-21T08:55:21;1.25;;;1.10;;
7263;SDS011;3673;52.480;13.348;2023-02-21T08:57:51;2.03;;;1.38;;
7263;SDS011;3673;52.480;13.348;2023-02-21T09:00:20;2.10;;;1.17;;
7263;SDS011;3673;52.480;13.348;2023-02-21T09:02:52;1.50;;;1.10;;
7263;SDS011;3673;52.480;13.348;2023-02-21T09:05:20;1.80;;;1.20;;
7263;SDS011;3673;52.480;13.348;2023-02-21T09:07:51;2.53;;;1.33;;
7263;SDS011;3673;52.480;13.348;2023-02-21T09:10:19;2.00;;;1.58;;
7263;SDS011;3673;52.480;13.348;2023-02-21T09:12:46;3.60;;;1.65;;
7263;SDS011;3673;52.480;13.348;2023-02-21T09:15:14;3.05;;;1.92;;
7263;SDS011;3673;52.480;13.348;2023-02-21T09:17:41;3.42;;;2.60;;
7263;SDS011;3673;52.480;13.348;2023-02-21T09:20:09;3.20;;;1.70;;
7263;SDS011;3673;52.480;13.348;2023-02-21T09:22:39;2.75;;;1.65;;
7263;SDS011;3673;52.480;13.348;2023-02-21T09:25:08;5.07;;;3.58;;
7263;SDS011;3673;52.480;13.348;2023-02-21T09:27:37;6.82;;;4.40;;
7263;SDS011;3673;52.480;13.348;2023-02-21T09:30:04;3.63;;;1.80;;
7263;SDS011;3673;52.480;13.348;2023-02-21T09:32:34;3.63;;;2.83;;
7263;SDS011;3673;52.480;13.348;2023-02-21T09:35:01;5.03;;;2.42;;
7263;SDS011;3673;52.480;13.348;2023-02-21T09:37:28;3.25;;;2.70;;
7263;SDS011;3673;52.480;13.348;2023-02-21T09:39:57;5.30;;;2.22;;
7263;SDS011;3673;52.480;13.348;2023-02-21T09:42:25;5.97;;;3.00;;
7263;SDS011;3673;52.480;13.348;2023-02-21T09:44:55;4.03;;;2.20;;
7263;SDS011;3673;52.480;13.348;2023-02-21T09:47:25;2.63;;;1.95;;
7263;SDS011;3673;52.480;13.348;2023-02-21T09:49:57;2.38;;;1.60;;
7263;SDS011;3673;52.480;13.348;2023-02-21T09:52:30;8.73;;;6.40;;
7263;SDS011;3673;52.480;13.348;2023-02-21T09:55:01;4.47;;;2.80;;
7263;SDS011;3673;52.480;13.348;2023-02-21T09:57:33;2.88;;;1.70;;
7263;SDS011;3673;52.480;13.348;2023-02-21T10:00:05;3.50;;;2.05;;
7263;SDS011;3673;52.480;13.348;2023-02-21T10:02:45;5.38;;;2.85;;
7263;SDS011;3673;52.480;13.348;2023-02-21T10:05:28;7.72;;;4.78;;
7263;SDS011;3673;52.480;13.348;2023-02-21T10:08:07;3.22;;;1.58;;
7263;SDS011;3673;52.480;13.348;2023-02-21T10:10:46;6.13;;;2.03;;
7263;SDS011;3673;52.480;13.348;2023-02-21T10:13:28;7.00;;;3.92;;
7263;SDS011;3673;52.480;13.348;2023-02-21T10:16:05;7.20;;;1.40;;
7263;SDS011;3673;52.480;13.348;2023-02-21T10:18:39;9.68;;;4.28;;
7263;SDS011;3673;52.480;13.348;2023-02-21T10:21:14;6.22;;;1.30;;
7263;SDS011;3673;52.480;13.348;2023-02-21T10:23:48;7.43;;;1.70;;
7263;SDS011;3673;52.480;13.348;2023-02-21T10:26:20;6.15;;;1.50;;
7263;SDS011;3673;52.480;13.348;2023-02-21T10:28:52;2.63;;;1.20;;
7263;SDS011;3673;52.480;13.348;2023-02-21T10:31:22;2.80;;;1.30;;
7263;SDS011;3673;52.480;13.348;2023-02-21T10:34:01;2.97;;;1.65;;
7263;SDS011;3673;52.480;13.348;2023-02-21T10:36:31;3.20;;;1.30;;
7263;SDS011;3673;52.480;13.348;2023-02-21T10:39:03;4.03;;;1.42;;
7263;SDS011;3673;52.480;13.348;2023-02-21T10:41:38;2.00;;;0.90;;
7263;SDS011;3673;52.480;13.348;2023-02-21T10:44:06;1.15;;;0.77;;
7263;SDS011;3673;52.480;13.348;2023-02-21T10:46:39;2.70;;;0.52;;
7263;SDS011;3673;52.480;13.348;2023-02-21T10:49:16;4.93;;;1.00;;
7263;SDS011;3673;52.480;13.348;2023-02-21T10:51:52;2.55;;;1.08;;
7263;SDS011;3673;52.480;13.348;2023-02-21T10:54:31;2.38;;;1.02;;
7263;SDS011;3673;52.480;13.348;2023-02-21T10:56:59;5.97;;;0.85;;
7263;SDS011;3673;52.480;13.348;2023-02-21T10:59:29;4.25;;;0.90;;
7263;SDS011;3673;52.480;13.348;2023-02-21T11:02:00;5.97;;;0.98;;
7263;SDS011;3673;52.480;13.348;2023-02-21T11:04:48;3.20;;;1.20;;
7263;SDS011;3673;52.480;13.348;2023-02-21T11:07:19;2.63;;;0.80;;
7263;SDS011;3673;52.480;13.348;2023-02-21T11:09:47;3.13;;;0.77;;
7263;SDS011;3673;52.480;13.348;2023-02-21T11:12:18;6.55;;;1.20;;
7263;SDS011;3673;52.480;13.348;2023-02-21T11:15:04;3.63;;;1.20;;
7263;SDS011;3673;52.480;13.348;2023-02-21T11:17:42;6.63;;;1.25;;
7263;SDS011;3673;52.480;13.348;2023-02-21T11:20:15;4.72;;;1.25;;
7263;SDS011;3673;52.480;13.348;2023-02-21T11:22:45;6.10;;;1.45;;
7263;SDS011;3673;52.480;13.348;2023-02-21T11:25:19;2.45;;;0.80;;
7263;SDS011;3673;52.480;13.348;2023-02-21T11:28:02;5.38;;;1.30;;
7263;SDS011;3673;52.480;13.348;2023-02-21T11:30:32;3.03;;;0.90;;
7263;SDS011;3673;52.480;13.348;2023-02-21T11:33:02;5.95;;;1.27;;
7263;SDS011;3673;52.480;13.348;2023-02-21T11:35:31;7.93;;;1.20;;
7263;SDS011;3673;52.480;13.348;2023-02-21T11:38:03;6.03;;;1.27;;
7263;SDS011;3673;52.480;13.348;2023-02-21T11:40:41;6.53;;;1.38;;
7263;SDS011;3673;52.480;13.348;2023-02-21T11:43:13;8.48;;;1.42;;
7263;SDS011;3673;52.480;13.348;2023-02-21T11:45:56;6.78;;;1.13;;
7263;SDS011;3673;52.480;13.348;2023-02-21T11:48:48;8.68;;;1.85;;
7263;SDS011;3673;52.480;13.348;2023-02-21T11:51:26;5.40;;;1.70;;
7263;SDS011;3673;52.480;13.348;2023-02-21T11:54:00;7.22;;;1.20;;
7263;SDS011;3673;52.480;13.348;2023-02-21T11:56:31;3.97;;;1.20;;
7263;SDS011;3673;52.480;13.348;2023-02-21T11:59:15;6.57;;;2.20;;
7263;SDS011;3673;52.480;13.348;2023-02-21T12:01:58;6.60;;;1.85;;
7263;SDS011;3673;52.480;13.348;2023-02-21T12:04:48;9.25;;;2.03;;
7263;SDS011;3673;52.480;13.348;2023-02-21T12:07:29;6.10;;;1.48;;
7263;SDS011;3673;52.480;13.348;2023-02-21T12:10:07;11.50;;;4.03;;
7263;SDS011;3673;52.480;13.348;2023-02-21T12:12:58;8.05;;;1.55;;
7263;SDS011;3673;52.480;13.348;2023-02-21T12:15:36;7.32;;;1.90;;
7263;SDS011;3673;52.480;13.348;2023-02-21T12:18:23;9.27;;;1.40;;
7263;SDS011;3673;52.480;13.348;2023-02-21T12:21:21;9.60;;;2.42;;
7263;SDS011;3673;52.480;13.348;2023-02-21T12:24:06;8.07;;;1.50;;
7263;SDS011;3673;52.480;13.348;2023-02-21T12:26:49;8.88;;;2.13;;
7263;SDS011;3673;52.480;13.348;2023-02-21T12:29:25;4.80;;;1.45;;
7263;SDS011;3673;52.480;13.348;2023-02-21T12:32:30;8.60;;;2.15;;
7263;SDS011;3673;52.480;13.348;2023-02-21T12:35:21;9.10;;;1.92;;
7263;SDS011;3673;52.480;13.348;2023-02-21T12:38:48;8.75;;;1.92;;
7263;SDS011;3673;52.480;13.348;2023-02-21T12:41:31;6.13;;;1.92;;
7263;SDS011;3673;52.480;13.348;2023-02-21T12:44:16;5.72;;;1.15;;
7263;SDS011;3673;52.480;13.348;2023-02-21T12:46:49;6.35;;;1.23;;
7263;SDS011;3673;52.480;13.348;2023-02-21T12:49:25;7.38;;;1.60;;
7263;SDS011;3673;52.480;13.348;2023-02-21T12:51:57;4.65;;;1.65;;
7263;SDS011;3673;52.480;13.348;2023-02-21T12:54:35;11.80;;;1.52;;
7263;SDS011;3673;52.480;13.348;2023-02-21T12:57:09;6.18;;;1.65;;
7263;SDS011;3673;52.480;13.348;2023-02-21T12:59:45;9.80;;;1.63;;
7263;SDS011;3673;52.480;13.348;2023-02-21T13:02:25;11.07;;;1.75;;
7263;SDS011;3673;52.480;13.348;2023-02-21T13:05:02;8.95;;;1.80;;
7263;SDS011;3673;52.480;13.348;2023-02-21T13:07:38;10.02;;;1.63;;
7263;SDS011;3673;52.480;13.348;2023-02-21T13:10:12;7.97;;;1.92;;
7263;SDS011;3673;52.480;13.348;2023-02-21T13:12:45;8.02;;;2.40;;
7263;SDS011;3673;52.480;13.348;2023-02-21T13:15:20;8.65;;;2.75;;
7263;SDS011;3673;52.480;13.348;2023-02-21T13:17:51;11.50;;;4.15;;
7263;SDS011;3673;52.480;13.348;2023-02-21T13:20:28;10.07;;;1.93;;
7263;SDS011;3673;52.480;13.348;2023-02-21T13:26:28;8.00;;;2.00;;
7263;SDS011;3673;52.480;13.348;2023-02-21T13:29:17;7.38;;;2.28;;
7263;SDS011;3673;52.480;13.348;2023-02-21T13:31:47;4.72;;;1.50;;
7263;SDS011;3673;52.480;13.348;2023-02-21T13:34:22;9.93;;;1.50;;
7263;SDS011;3673;52.480;13.348;2023-02-21T13:36:55;10.10;;;2.28;;
7263;SDS011;3673;52.480;13.348;2023-02-21T13:39:28;7.72;;;2.00;;
7263;SDS011;3673;52.480;13.348;2023-02-21T13:42:02;9.23;;;2.13;;
7263;SDS011;3673;52.480;13.348;2023-02-21T13:44:33;9.75;;;1.95;;
7263;SDS011;3673;52.480;13.348;2023-02-21T13:47:09;6.07;;;1.75;;
7263;SDS011;3673;52.480;13.348;2023-02-21T13:49:40;8.32;;;2.47;;
7263;SDS011;3673;52.480;13.348;2023-02-21T13:52:27;9.65;;;2.15;;
7263;SDS011;3673;52.480;13.348;2023-02-21T13:55:20;8.27;;;1.98;;
7263;SDS011;3673;52.480;13.348;2023-02-21T14:01:19;6.20;;;1.45;;
7263;SDS011;3673;52.480;13.348;2023-02-21T14:07:39;8.45;;;1.73;;
7263;SDS011;3673;52.480;13.348;2023-02-21T14:10:33;6.55;;;1.58;;
7263;SDS011;3673;52.480;13.348;2023-02-21T14:13:19;9.38;;;2.35;;
7263;SDS011;3673;52.480;13.348;2023-02-21T14:15:55;9.68;;;1.92;;
7263;SDS011;3673;52.480;13.348;2023-02-21T14:18:26;12.10;;;2.90;;
7263;SDS011;3673;52.480;13.348;2023-02-21T14:20:57;11.65;;;2.25;;
7263;SDS011;3673;52.480;13.348;2023-02-21T14:23:34;10.57;;;2.38;;
7263;SDS011;3673;52.480;13.348;2023-02-21T14:26:32;10.10;;;2.08;;
7263;SDS011;3673;52.480;13.348;2023-02-21T14:29:10;8.27;;;1.70;;
7263;SDS011;3673;52.480;13.348;2023-02-21T14:31:45;7.80;;;1.58;;
7263;SDS011;3673;52.480;13.348;2023-02-21T14:34:23;10.82;;;2.20;;
7263;SDS011;3673;52.480;13.348;2023-02-21T14:37:03;7.47;;;1.95;;
7263;SDS011;3673;52.480;13.348;2023-02-21T14:39:39;13.15;;;1.92;;
7263;SDS011;3673;52.480;13.348;2023-02-21T14:42:16;10.40;;;2.70;;
7263;SDS011;3673;52.480;13.348;2023-02-21T14:44:58;10.93;;;3.22;;
7263;SDS011;3673;52.480;13.348;2023-02-21T14:47:50;17.15;;;3.08;;
7263;SDS011;3673;52.480;13.348;2023-02-21T14:50:42;8.90;;;2.60;;
7263;SDS011;3673;52.480;13.348;2023-02-21T14:53:42;15.07;;;2.88;;
7263;SDS011;3673;52.480;13.348;2023-02-21T14:56:55;16.65;;;5.25;;
7263;SDS011;3673;52.480;13.348;2023-02-21T14:59:57;11.85;;;2.88;;
7263;SDS011;3673;52.480;13.348;2023-02-21T15:02:39;9.60;;;2.60;;
7263;SDS011;3673;52.480;13.348;2023-02-21T15:05:11;20.02;;;9.45;;
7263;SDS011;3673;52.480;13.348;2023-02-21T15:07:49;15.45;;;7.60;;
7263;SDS011;3673;52.480;13.348;2023-02-21T15:10:24;20.65;;;3.88;;
7263;SDS011;3673;52.480;13.348;2023-02-21T15:12:53;16.05;;;4.35;;
7263;SDS011;3673;52.480;13.348;2023-02-21T15:15:25;14.40;;;4.40;;
7263;SDS011;3673;52.480;13.348;2023-02-21T15:17:58;30.70;;;11.40;;
7263;SDS011;3673;52.480;13.348;2023-02-21T15:20:31;27.90;;;12.05;;
7263;SDS011;3673;52.480;13.348;2023-02-21T15:23:01;16.90;;;4.03;;
7263;SDS011;3673;52.480;13.348;2023-02-21T15:25:37;21.42;;;8.85;;
7263;SDS011;3673;52.480;13.348;2023-02-21T15:28:05;26.42;;;15.25;;
7263;SDS011;3673;52.480;13.348;2023-02-21T15:30:53;17.88;;;7.00;;
7263;SDS011;3673;52.480;13.348;2023-02-21T15:33:24;13.48;;;3.65;;
7263;SDS011;3673;52.480;13.348;2023-02-21T15:35:54;15.82;;;4.45;;
7263;SDS011;3673;52.480;13.348;2023-02-21T15:38:26;15.10;;;6.15;;
7263;SDS011;3673;52.480;13.348;2023-02-21T15:40:59;13.80;;;4.40;;
7263;SDS011;3673;52.480;13.348;2023-02-21T15:43:34;18.08;;;4.50;;
7263;SDS011;3673;52.480;13.348;2023-02-21T15:48:41;15.32;;;3.53;;
7263;SDS011;3673;52.480;13.348;2023-02-21T15:51:08;9.95;;;2.92;;
7263;SDS011;3673;52.480;13.348;2023-02-21T15:53:37;17.75;;;4.15;;
7263;SDS011;3673;52.480;13.348;2023-02-21T15:56:14;18.17;;;5.72;;
7263;SDS011;3673;52.480;13.348;2023-02-21T15:59:01;9.82;;;3.20;;
7263;SDS011;3673;52.480;13.348;2023-02-21T16:01:38;16.35;;;3.67;;